Portada
METAR-TAF:

METAR-TAF

Aeroports :

Malé, Maldives

latitud: 04-12N, longitud: 073-32E, altitud: 2 m

Observació

L'informe es va fer fa 43 minuts, a les 08:00 UTC
Temperatura 25°C
Humitat 94%
Pressió 1011 hPa
Visibilitat: 6000 m
Núvols disperses a una alçada de 1500 ft
Escasses núvols a una alçada de 1600 ft, Cumulonimbus.
Cel cobert a una alçada de 9000 ft
tempesta, pluja

METAR: VRMM 230800Z 24003K 6000 -TSRA SCT015 FEW016CB OVC090 25/24 Q1011CB WNW TEMPO 1000 +TSRA

Hora: 13:43 (08:43 UTC)

Pronòstic

L'informe es va fer fa 3 hores i 43 minuts, a les 05:00 UTC
Pronòstic vàlid del 23 a les 06 UTC al 24 a les 12 UTC
Vent 13 kt del Oest
Visibilitat 10 km o més
Núvols disperses a una alçada de 1700 ft, Cumulus congestus.
Núvols disperses a una alçada de 10000 ft
Temporalment
l' 23 a les 06 UTC al 23 a les 12 UTC
Visibilitat: 4000 m
Núvols disperses a una alçada de 1600 ft, Cumulonimbus.
xàfecs de pluja

TAF: VRMM 230500Z 2306/2412 27013KT 9999 SCT017TCU SCT100 TEMPO 2306/2312 4000 SHRA SCT016CB

Observacions i pronòstics meteorològics de més de 4000 aeroports (METAR i TAF).

Les estacions disponibles són els punts grocs i vermells al mapa.

Posi el ratolí al punt desitjat per veure el nom de l'estació.

Feu clic per veure les observacions i els pronòstics meteorològics.

Per canviar el mapa: feu clic els botons verds amb una creu de color negre per apropar; al botó verd amb un guió per allunyar la imatge; o en les fletxes verdes per a mapes adjacents.


METAR-TAF: